createdAt,value
2024-05-09T00:01:25.703Z,86.38
2024-05-09T00:04:32.059Z,86.90
2024-05-09T00:07:38.292Z,86.18
2024-05-09T00:10:44.943Z,85.46
2024-05-09T00:13:51.350Z,86.32
2024-05-09T00:16:57.249Z,87.49
2024-05-09T00:20:09.079Z,87.59
2024-05-09T00:23:07.992Z,88.51
2024-05-09T00:26:14.670Z,87.90
2024-05-09T00:29:21.207Z,88.45
2024-05-09T00:32:29.105Z,89.07
2024-05-09T00:35:35.886Z,89.37
2024-05-09T00:38:42.429Z,89.42
2024-05-09T00:41:48.650Z,89.52
2024-05-09T00:44:55.157Z,88.56
2024-05-09T00:48:02.030Z,87.84
2024-05-09T00:51:08.683Z,87.79
2024-05-09T00:54:15.050Z,87.38
2024-05-09T00:57:24.223Z,87.73
2024-05-09T01:00:38.547Z,89.21
2024-05-09T01:03:40.430Z,90.08
2024-05-09T01:06:46.818Z,90.69
2024-05-09T01:09:53.215Z,90.44
2024-05-09T01:12:56.134Z,89.83
2024-05-09T01:16:03.988Z,89.25
2024-05-09T01:19:10.482Z,89.76
2024-05-09T01:22:16.913Z,90.32
2024-05-09T01:25:23.444Z,90.63
2024-05-09T01:28:32.873Z,91.49
2024-05-09T01:31:39.381Z,92.01
2024-05-09T01:34:45.854Z,91.80
2024-05-09T01:37:52.533Z,92.01
2024-05-09T01:40:58.911Z,91.91
2024-05-09T01:44:06.956Z,91.49
2024-05-09T01:47:13.254Z,91.19
2024-05-09T01:50:35.708Z,92.05
2024-05-09T01:53:27.041Z,92.46
2024-05-09T01:56:33.527Z,93.23
2024-05-09T01:59:40.015Z,93.84
2024-05-09T02:02:46.386Z,93.95
2024-05-09T02:05:52.747Z,93.74
2024-05-09T02:08:59.081Z,92.87
2024-05-09T02:12:07.016Z,92.77
2024-05-09T02:15:13.606Z,92.67
2024-05-09T02:18:19.948Z,92.46
2024-05-09T02:21:26.564Z,92.40
2024-05-09T02:24:33.007Z,92.71
2024-05-09T02:27:39.212Z,93.12
2024-05-09T02:30:45.701Z,93.33
2024-05-09T02:33:52.379Z,93.64
2024-05-09T02:36:59.174Z,92.82
2024-05-09T02:40:07.099Z,92.71
2024-05-09T02:43:06.558Z,91.89
2024-05-09T02:46:13.191Z,91.78
2024-05-09T02:49:19.975Z,91.99
2024-05-09T02:52:26.590Z,92.10
2024-05-09T02:55:33.303Z,92.76
2024-05-09T02:58:39.772Z,92.92
2024-05-09T03:01:46.145Z,92.61
2024-05-09T03:04:52.622Z,92.30
2024-05-09T03:07:58.920Z,92.50
2024-05-09T03:11:05.350Z,92.30
2024-05-09T03:14:13.240Z,91.38
2024-05-09T03:17:19.439Z,91.00
2024-05-09T03:20:32.553Z,91.36
2024-05-09T03:23:30.682Z,93.05
2024-05-09T03:26:37.257Z,94.02
2024-05-09T03:29:43.862Z,94.84
2024-05-09T03:32:50.250Z,95.46
2024-05-09T03:35:56.595Z,95.36
2024-05-09T03:39:03.163Z,95.87
2024-05-09T03:42:09.576Z,95.52
2024-05-09T03:45:17.402Z,94.49
2024-05-09T03:48:23.948Z,94.28
2024-05-09T03:51:30.281Z,94.70
2024-05-09T03:54:36.645Z,94.70
2024-05-09T03:57:43.140Z,94.59
2024-05-09T04:00:49.845Z,94.49
2024-05-09T04:03:56.193Z,94.59
2024-05-09T04:06:58.065Z,94.90
2024-05-09T04:09:57.619Z,94.90
2024-05-09T04:13:05.451Z,95.21
2024-05-09T04:16:11.803Z,94.90
2024-05-09T04:19:18.480Z,94.45
2024-05-09T04:22:24.805Z,94.45
2024-05-09T04:25:31.078Z,94.45
2024-05-09T04:28:31.911Z,93.58
2024-05-09T04:31:38.442Z,93.16
2024-05-09T04:34:44.835Z,92.96
2024-05-09T04:37:51.535Z,93.27
2024-05-09T04:40:58.627Z,93.48
2024-05-09T04:44:06.310Z,93.37
2024-05-09T04:47:12.726Z,93.48
2024-05-09T04:50:28.937Z,93.68
2024-05-09T04:53:22.355Z,93.68
2024-05-09T04:56:28.532Z,93.95
2024-05-09T04:59:34.890Z,94.15
2024-05-09T05:02:41.416Z,94.56
2024-05-09T05:05:47.836Z,95.24
2024-05-09T05:08:54.079Z,95.14
2024-05-09T05:12:00.403Z,95.09
2024-05-09T05:15:09.991Z,94.89
2024-05-09T05:18:16.804Z,94.64
2024-05-09T05:21:23.432Z,94.08
2024-05-09T05:24:29.980Z,93.87
2024-05-09T05:27:31.279Z,93.98
2024-05-09T05:30:37.950Z,93.83
2024-05-09T05:33:44.512Z,93.59
2024-05-09T05:36:50.965Z,92.82
2024-05-09T05:39:57.743Z,92.41
2024-05-09T05:43:05.746Z,90.99
2024-05-09T05:46:12.197Z,89.66
2024-05-09T05:49:18.851Z,88.70
2024-05-09T05:52:25.138Z,87.94
2024-05-09T05:55:31.724Z,87.49
2024-05-09T05:58:38.132Z,86.88
2024-05-09T06:01:44.493Z,86.22
2024-05-09T06:04:46.465Z,85.67
2024-05-09T06:07:54.720Z,84.65
2024-05-09T06:11:04.217Z,84.41
2024-05-09T06:14:12.116Z,84.61
2024-05-09T06:17:18.570Z,83.85
2024-05-09T06:20:34.566Z,83.40
2024-05-09T06:23:29.953Z,82.55
2024-05-09T06:26:36.380Z,81.73
2024-05-09T06:29:42.746Z,81.90
2024-05-09T06:32:49.111Z,80.07
2024-05-09T06:35:55.311Z,78.91
2024-05-09T06:39:01.662Z,78.91
2024-05-09T06:42:08.019Z,78.26
2024-05-09T06:45:15.697Z,77.75
2024-05-09T06:48:22.919Z,77.40
2024-05-09T06:51:30.278Z,76.39
2024-05-09T06:54:36.755Z,76.35
2024-05-09T06:57:45.058Z,73.60
2024-05-09T07:00:51.898Z,73.77
2024-05-09T07:03:58.548Z,73.63
2024-05-09T07:07:04.944Z,73.50
2024-05-09T07:10:21.575Z,71.87
2024-05-09T07:13:15.874Z,72.55
2024-05-09T07:16:24.027Z,71.12
2024-05-09T07:19:30.509Z,71.30
2024-05-09T07:22:37.351Z,69.78
2024-05-09T07:25:43.837Z,69.13
2024-05-09T07:28:48.048Z,69.71
2024-05-09T07:31:54.428Z,66.86
2024-05-09T07:35:00.851Z,64.84
2024-05-09T07:38:07.365Z,65.42
2024-05-09T07:41:13.929Z,65.72
2024-05-09T07:44:22.172Z,65.18
2024-05-09T07:48:57.117Z,64.24
2024-05-09T07:52:22.951Z,64.85
2024-05-09T07:53:42.923Z,63.93
2024-05-09T07:56:40.170Z,63.30
2024-05-09T07:59:46.834Z,62.49
2024-05-09T08:02:53.629Z,63.07
2024-05-09T08:06:00.104Z,61.44
2024-05-09T08:09:13.837Z,61.72
2024-05-09T08:12:11.976Z,60.50
2024-05-09T08:15:20.034Z,60.48
2024-05-09T08:18:27.263Z,59.36
2024-05-09T08:21:34.201Z,60.14
2024-05-09T08:24:40.853Z,59.14
2024-05-09T08:27:42.360Z,57.79
2024-05-09T08:30:49.040Z,57.59
2024-05-09T08:33:57.247Z,58.87
2024-05-09T08:37:12.857Z,57.26
2024-05-09T08:40:23.615Z,57.16
2024-05-09T08:43:16.840Z,57.16
2024-05-09T08:46:27.127Z,58.58
2024-05-09T08:49:33.641Z,57.74
2024-05-09T08:52:39.640Z,58.45
2024-05-09T08:55:45.968Z,57.84
2024-05-09T08:58:53.488Z,56.70
2024-05-09T09:02:00.184Z,56.50
2024-05-09T09:05:08.380Z,56.20
2024-05-09T09:08:14.883Z,56.37
2024-05-09T09:11:18.106Z,57.18
2024-05-09T09:14:28.837Z,56.37
2024-05-09T09:17:35.486Z,54.56
2024-05-09T09:20:47.270Z,54.43
2024-05-09T09:23:55.003Z,54.43
2024-05-09T09:27:01.342Z,54.43
2024-05-09T09:30:15.608Z,55.04
2024-05-09T09:33:14.568Z,54.18
2024-05-09T09:36:22.275Z,55.36
2024-05-09T09:39:31.189Z,52.64
2024-05-09T09:42:37.958Z,51.59
2024-05-09T09:45:39.444Z,51.06
2024-05-09T09:48:46.011Z,51.16
2024-05-09T09:51:54.889Z,50.58
2024-05-09T09:55:01.637Z,51.99
2024-05-09T09:58:10.834Z,50.51
2024-05-09T10:01:19.682Z,51.41
2024-05-09T10:04:26.562Z,51.51
2024-05-09T10:07:33.119Z,50.71
2024-05-09T10:10:39.692Z,49.98
2024-05-09T10:13:46.891Z,50.68
2024-05-09T10:16:54.877Z,50.38
2024-05-09T10:20:01.266Z,50.18
2024-05-09T10:23:07.827Z,50.66
2024-05-09T10:26:14.472Z,50.48
2024-05-09T10:29:21.457Z,51.01
2024-05-09T10:32:28.117Z,50.81
2024-05-09T10:35:36.134Z,52.31
2024-05-09T10:38:42.533Z,52.06
2024-05-09T10:41:48.979Z,50.41
2024-05-09T10:44:57.468Z,48.40
2024-05-09T10:48:03.971Z,48.90
2024-05-09T10:51:10.420Z,48.70
2024-05-09T10:54:16.755Z,49.38
2024-05-09T10:57:16.945Z,49.16
2024-05-09T11:00:30.234Z,49.23
2024-05-09T11:03:27.709Z,47.96
2024-05-09T11:06:34.171Z,48.08
2024-05-09T11:09:40.494Z,48.66
2024-05-09T11:12:46.761Z,49.66
2024-05-09T11:15:55.097Z,48.51
2024-05-09T11:19:01.836Z,48.57
2024-05-09T11:22:08.442Z,47.16
2024-05-09T11:25:15.456Z,46.76
2024-05-09T11:28:22.086Z,46.24
2024-05-09T11:31:28.660Z,45.76
2024-05-09T11:34:35.225Z,47.69
2024-05-09T11:37:41.612Z,47.81
2024-05-09T11:40:49.039Z,47.73
2024-05-09T11:43:57.017Z,47.91
2024-05-09T11:47:00.481Z,48.36
2024-05-09T11:50:08.241Z,47.99
2024-05-09T11:53:16.658Z,45.47
2024-05-09T11:56:22.928Z,47.49
2024-05-09T11:59:29.123Z,46.54
2024-05-09T12:02:35.740Z,47.54
2024-05-09T12:05:43.069Z,47.24
2024-05-09T12:08:50.417Z,46.50
2024-05-09T12:11:56.836Z,45.09
2024-05-09T12:15:04.750Z,45.42
2024-05-09T12:18:12.466Z,46.16
2024-05-09T12:21:19.044Z,46.76
2024-05-09T12:24:22.271Z,45.16
2024-05-09T12:27:22.518Z,46.31
2024-05-09T12:30:36.222Z,44.75
2024-05-09T12:33:32.804Z,44.59
2024-05-09T12:36:39.293Z,42.51
2024-05-09T12:39:45.859Z,42.99
2024-05-09T12:42:52.325Z,45.39
2024-05-09T12:46:00.426Z,43.71
2024-05-09T12:49:06.992Z,45.21
2024-05-09T12:52:13.764Z,45.40
2024-05-09T12:55:20.300Z,45.61
2024-05-09T12:58:26.865Z,45.17
2024-05-09T13:01:33.458Z,43.85
2024-05-09T13:04:40.104Z,43.37
2024-05-09T13:07:46.369Z,43.45
2024-05-09T13:10:52.927Z,42.45
2024-05-09T13:14:02.647Z,43.35
2024-05-09T13:17:10.453Z,44.07
2024-05-09T13:20:26.049Z,44.17
2024-05-09T13:23:21.291Z,43.89
2024-05-09T13:26:27.861Z,43.89
2024-05-09T13:29:34.678Z,44.59
2024-05-09T13:32:41.390Z,44.74
2024-05-09T13:35:50.659Z,43.63
2024-05-09T13:38:57.653Z,42.55
2024-05-09T13:42:03.979Z,43.77
2024-05-09T13:45:12.083Z,45.29
2024-05-09T13:48:18.656Z,43.15
2024-05-09T13:51:25.495Z,42.07
2024-05-09T13:54:32.170Z,43.49
2024-05-09T13:57:38.477Z,43.11
2024-05-09T14:00:48.420Z,44.73
2024-05-09T14:03:45.276Z,45.13
2024-05-09T14:06:51.893Z,44.91
2024-05-09T14:09:58.398Z,44.21
2024-05-09T14:13:04.668Z,45.81
2024-05-09T14:16:12.933Z,42.85
2024-05-09T14:19:19.273Z,43.01
2024-05-09T14:22:25.861Z,41.50
2024-05-09T14:25:34.114Z,41.31
2024-05-09T14:28:41.447Z,42.51
2024-05-09T14:31:47.903Z,42.75
2024-05-09T14:34:55.134Z,41.89
2024-05-09T14:38:01.485Z,41.82
2024-05-09T14:41:07.733Z,39.98
2024-05-09T14:44:15.767Z,39.21
2024-05-09T14:47:23.570Z,40.64
2024-05-09T14:50:35.910Z,41.67
2024-05-09T14:53:33.873Z,41.47
2024-05-09T14:56:40.193Z,41.28
2024-05-09T14:59:46.577Z,41.66
2024-05-09T15:02:53.977Z,42.35
2024-05-09T15:06:00.347Z,41.46
2024-05-09T15:09:06.704Z,42.05
2024-05-09T15:12:13.083Z,40.95
2024-05-09T15:15:19.670Z,42.67
2024-05-09T15:18:27.645Z,42.89
2024-05-09T15:21:34.628Z,42.61
2024-05-09T15:24:42.102Z,42.65
2024-05-09T15:27:48.843Z,43.57
2024-05-09T15:30:55.604Z,43.77
2024-05-09T15:34:02.256Z,44.49
2024-05-09T15:37:08.870Z,45.20
2024-05-09T15:40:25.975Z,45.39
2024-05-09T15:43:19.517Z,45.97
2024-05-09T15:46:27.630Z,44.83
2024-05-09T15:49:28.496Z,43.65
2024-05-09T15:52:30.344Z,43.23
2024-05-09T15:55:48.881Z,41.80
2024-05-09T15:58:55.390Z,41.77
2024-05-09T16:02:01.990Z,42.67
2024-05-09T16:05:08.734Z,42.10
2024-05-09T16:08:15.579Z,43.59
2024-05-09T16:11:22.488Z,43.37
2024-05-09T16:14:28.840Z,42.97
2024-05-09T16:17:31.137Z,44.09
2024-05-09T16:20:41.763Z,43.37
2024-05-09T16:23:39.751Z,41.96
2024-05-09T16:26:50.804Z,43.57
2024-05-09T16:29:57.306Z,43.27
2024-05-09T16:33:05.139Z,43.57
2024-05-09T16:36:11.991Z,43.37
2024-05-09T16:39:18.503Z,42.77
2024-05-09T16:42:24.901Z,43.71
2024-05-09T16:45:31.574Z,44.09
2024-05-09T16:48:40.209Z,44.17
2024-05-09T16:51:47.660Z,43.55
2024-05-09T16:54:54.282Z,43.85
2024-05-09T16:58:00.772Z,43.33
2024-05-09T17:01:07.560Z,42.41
2024-05-09T17:04:14.347Z,43.03
2024-05-09T17:07:20.859Z,43.35
2024-05-09T17:10:33.006Z,44.35
2024-05-09T17:13:30.790Z,43.67
2024-05-09T17:16:38.750Z,43.97
2024-05-09T17:19:45.230Z,43.39
2024-05-09T17:22:53.679Z,43.71
2024-05-09T17:26:00.126Z,43.43
2024-05-09T17:29:09.359Z,44.55
2024-05-09T17:32:06.710Z,45.05
2024-05-09T17:35:13.185Z,45.35
2024-05-09T17:38:19.551Z,45.25
2024-05-09T17:41:25.870Z,44.85
2024-05-09T17:44:32.195Z,45.15
2024-05-09T17:47:40.200Z,45.15
2024-05-09T17:50:48.365Z,45.67
2024-05-09T17:53:54.705Z,46.19
2024-05-09T17:57:03.193Z,46.92
2024-05-09T18:00:11.803Z,47.24
2024-05-09T18:03:18.608Z,48.04
2024-05-09T18:06:25.000Z,50.16
2024-05-09T18:09:31.437Z,50.09
2024-05-09T18:12:37.994Z,50.39
2024-05-09T18:15:44.843Z,49.71
2024-05-09T18:18:52.761Z,52.14
2024-05-09T18:21:59.306Z,53.25
2024-05-09T18:25:05.843Z,53.27
2024-05-09T18:28:12.409Z,55.18
2024-05-09T18:31:18.806Z,55.40
2024-05-09T18:34:29.480Z,55.83
2024-05-09T18:37:35.983Z,56.46
2024-05-09T18:40:44.893Z,57.70
2024-05-09T18:43:45.415Z,59.00
2024-05-09T18:46:46.040Z,58.65
2024-05-09T18:49:52.540Z,58.18
2024-05-09T18:52:58.890Z,60.22
2024-05-09T18:56:05.203Z,61.56
2024-05-09T18:59:11.546Z,61.79
2024-05-09T19:02:18.075Z,61.41
2024-05-09T19:05:24.912Z,61.82
2024-05-09T19:08:31.475Z,62.05
2024-05-09T19:11:38.049Z,62.45
2024-05-09T19:14:44.611Z,62.65
2024-05-09T19:17:54.154Z,63.59
2024-05-09T19:21:00.316Z,64.40
2024-05-09T19:24:06.829Z,65.64
2024-05-09T19:27:14.748Z,65.75
2024-05-09T19:30:29.370Z,65.17
2024-05-09T19:33:24.956Z,65.88
2024-05-09T19:36:31.294Z,65.67
2024-05-09T19:39:39.153Z,66.58
2024-05-09T19:42:41.636Z,66.72
2024-05-09T19:45:51.655Z,66.72
2024-05-09T19:48:59.120Z,66.72
2024-05-09T19:52:02.003Z,68.26
2024-05-09T19:55:02.523Z,68.26
2024-05-09T19:58:05.606Z,67.96
2024-05-09T20:01:08.668Z,68.40
2024-05-09T20:04:10.634Z,69.10
2024-05-09T20:07:17.111Z,69.10
2024-05-09T20:10:26.735Z,69.81
2024-05-09T20:13:26.711Z,69.65
2024-05-09T20:16:33.156Z,69.65
2024-05-09T20:19:40.847Z,70.08
2024-05-09T20:22:49.375Z,69.78
2024-05-09T20:25:55.976Z,71.20
2024-05-09T20:29:02.164Z,70.93
2024-05-09T20:32:08.583Z,71.53
2024-05-09T20:35:14.719Z,72.65
2024-05-09T20:38:20.935Z,72.78
2024-05-09T20:41:27.189Z,73.49
2024-05-09T20:44:33.886Z,74.10
2024-05-09T20:47:37.098Z,73.53
2024-05-09T20:50:43.530Z,74.44
2024-05-09T20:53:49.767Z,75.15
2024-05-09T20:56:56.053Z,75.25
2024-05-09T21:00:03.286Z,76.10
2024-05-09T21:03:13.149Z,77.22
2024-05-09T21:06:17.439Z,78.13
2024-05-09T21:09:23.576Z,78.17
2024-05-09T21:12:29.752Z,78.67
2024-05-09T21:15:36.582Z,78.47
2024-05-09T21:18:45.568Z,78.78
2024-05-09T21:21:53.093Z,78.61
2024-05-09T21:24:59.719Z,78.20
2024-05-09T21:28:06.076Z,78.71
2024-05-09T21:31:12.542Z,78.61
2024-05-09T21:34:18.930Z,79.36
2024-05-09T21:37:25.236Z,79.25
2024-05-09T21:40:34.843Z,79.60
2024-05-09T21:43:32.090Z,79.70
2024-05-09T21:46:38.769Z,79.80
2024-05-09T21:49:48.939Z,79.50
2024-05-09T21:52:51.343Z,80.35
2024-05-09T21:55:51.325Z,81.87
2024-05-09T21:58:54.442Z,82.59
2024-05-09T22:02:04.191Z,82.89
2024-05-09T22:05:07.197Z,82.01
2024-05-09T22:08:09.368Z,81.71
2024-05-09T22:11:11.429Z,81.30
2024-05-09T22:14:14.826Z,82.01
2024-05-09T22:17:19.008Z,82.12
2024-05-09T22:20:36.554Z,81.74
2024-05-09T22:23:40.027Z,81.85
2024-05-09T22:26:41.526Z,82.87
2024-05-09T22:29:46.990Z,83.11
2024-05-09T22:32:55.865Z,83.51
2024-05-09T22:35:59.526Z,83.92
2024-05-09T22:39:07.884Z,83.21
2024-05-09T22:42:10.537Z,82.90
2024-05-09T22:45:19.710Z,82.09
2024-05-09T22:48:24.066Z,83.11
2024-05-09T22:51:33.148Z,82.90
2024-05-09T22:54:34.581Z,84.43
2024-05-09T22:57:37.384Z,84.12
2024-05-09T23:00:40.621Z,83.42
2024-05-09T23:03:44.879Z,83.11
2024-05-09T23:06:45.402Z,82.80
2024-05-09T23:09:48.381Z,82.60
2024-05-09T23:12:55.374Z,82.19
2024-05-09T23:15:57.022Z,82.29
2024-05-09T23:18:57.141Z,82.80
2024-05-09T23:21:58.295Z,83.92
2024-05-09T23:25:04.600Z,84.33
2024-05-09T23:28:05.021Z,84.84
2024-05-09T23:31:08.434Z,84.06
2024-05-09T23:34:18.077Z,84.27
2024-05-09T23:37:19.672Z,85.14
2024-05-09T23:40:36.378Z,85.66
2024-05-09T23:43:29.747Z,85.72
2024-05-09T23:46:31.219Z,85.51
2024-05-09T23:49:41.460Z,85.41
2024-05-09T23:52:42.590Z,85.41
2024-05-09T23:55:53.143Z,85.61
2024-05-09T23:58:58.005Z,84.29
